Time;durP1;ratioP1;P1;durP2;ratioP2;P2;SDS_P1;SDS_P2;PMS_P1;PMS_P2;Temp;Humidity;BMP_temperature;BMP_pressure;BME280_temperature;BME280_humidity;BME280_pressure;Samples;Min_cycle;Max_cycle;Signal;HPM_P1;HPM_P2
2023/01/26 00:00:26;;;;;;;29.52;26.52;;;;;;;-1.33;94.52;96113.50;5082472;28;20070;-61
2023/01/26 00:02:51;;;;;;;31.08;27.83;;;;;;;-1.35;94.78;96115.31;5081811;28;20048;-61
2023/01/26 00:05:17;;;;;;;29.60;26.50;;;;;;;-1.38;95.14;96105.09;5082813;28;20032;-61
2023/01/26 00:07:44;;;;;;;29.40;26.52;;;;;;;-1.46;94.54;96106.22;5080738;28;20115;-61
2023/01/26 00:10:10;;;;;;;29.88;26.67;;;;;;;-1.48;94.93;96097.69;5085270;28;20540;-63
2023/01/26 00:12:35;;;;;;;29.55;26.38;;;;;;;-1.40;95.17;96089.63;5081943;28;20103;-62
2023/01/26 00:15:01;;;;;;;32.22;28.95;;;;;;;-1.40;94.36;96096.56;5074925;28;20119;-70
2023/01/26 00:17:26;;;;;;;35.22;30.13;;;;;;;-1.41;94.13;96081.97;5077528;28;20016;-70
2023/01/26 00:19:54;;;;;;;32.42;28.92;;;;;;;-1.25;93.86;96077.88;5078128;28;20031;-70
2023/01/26 00:22:20;;;;;;;30.40;27.15;;;;;;;-1.37;93.88;96071.44;5083293;28;20141;-70
2023/01/26 00:24:45;;;;;;;29.88;26.73;;;;;;;-1.41;95.28;96074.22;5086065;28;20016;-70
2023/01/26 00:27:10;;;;;;;29.27;26.27;;;;;;;-1.32;94.41;96063.50;5081277;28;20035;-70
2023/01/26 00:29:36;;;;;;;29.23;26.23;;;;;;;-1.36;94.29;96056.78;5078714;28;20027;-61
2023/01/26 00:32:01;;;;;;;27.70;24.75;;;;;;;-1.38;93.79;96056.84;5073840;28;20439;-61
2023/01/26 00:34:26;;;;;;;31.88;28.50;;;;;;;-1.40;94.16;96057.81;5090223;28;20048;-64
2023/01/26 00:36:52;;;;;;;30.80;27.60;;;;;;;-1.41;93.71;96051.78;5079017;28;20031;-64
2023/01/26 00:39:17;;;;;;;30.65;27.42;;;;;;;-1.42;93.93;96047.53;5085581;28;20044;-64
2023/01/26 00:44:41;;;;;;;27.30;24.20;;;;;;;-1.53;93.62;96042.78;5052561;28;20516;-64
2023/01/26 00:47:09;;;;;;;26.73;23.98;;;;;;;-1.52;94.40;96048.81;5082358;28;20035;-64
2023/01/26 00:49:34;;;;;;;27.00;24.17;;;;;;;-1.50;93.13;96045.25;5081913;28;20017;-64
2023/01/26 00:52:01;;;;;;;26.48;23.77;;;;;;;-1.50;92.80;96045.25;5077244;28;20016;-68
2023/01/26 00:54:27;;;;;;;26.45;23.73;;;;;;;-1.55;92.64;96029.09;5079479;28;20076;-63
2023/01/26 00:56:52;;;;;;;26.35;23.60;;;;;;;-1.45;91.93;96035.56;5082548;28;20107;-62
2023/01/26 00:59:18;;;;;;;26.73;24.00;;;;;;;-1.50;92.38;96036.66;5082666;28;20028;-62
2023/01/26 01:01:43;;;;;;;26.05;23.25;;;;;;;-1.53;92.61;96036.78;5075683;28;20063;-62
2023/01/26 01:04:09;;;;;;;24.85;22.35;;;;;;;-1.57;93.01;96033.47;5079259;28;20051;-63
2023/01/26 01:06:34;;;;;;;27.15;24.27;;;;;;;-1.58;92.97;96027.47;5088234;28;20486;-63
2023/01/26 01:09:00;;;;;;;26.73;24.05;;;;;;;-1.59;92.99;96027.53;5083233;28;20016;-71
2023/01/26 01:11:25;;;;;;;25.13;22.67;;;;;;;-1.60;93.06;96029.25;5084141;28;20021;-64
2023/01/26 01:13:50;;;;;;;25.38;22.67;;;;;;;-1.64;92.39;96034.63;5082257;28;20012;-63
2023/01/26 01:16:17;;;;;;;27.30;24.40;;;;;;;-1.68;91.81;96033.03;5067829;28;20131;-63
2023/01/26 01:18:43;;;;;;;25.27;22.58;;;;;;;-1.71;92.25;96020.25;5062716;28;20041;-63
2023/01/26 01:21:13;;;;;;;25.08;22.55;;;;;;;-1.71;91.73;96017.66;5063949;28;20028;-63
2023/01/26 01:23:39;;;;;;;24.70;22.23;;;;;;;-1.72;91.91;96022.00;5077831;28;20081;-64
2023/01/26 01:26:06;;;;;;;24.23;21.77;;;;;;;-1.75;91.40;96015.22;5069877;28;20031;-63
2023/01/26 01:28:33;;;;;;;24.00;21.67;;;;;;;-1.73;91.61;96010.81;5059030;28;20025;-71
2023/01/26 01:30:58;;;;;;;25.17;22.67;;;;;;;-1.73;91.06;96008.25;5087367;28;20571;-65
2023/01/26 01:33:24;;;;;;;25.40;22.75;;;;;;;-1.75;90.89;96001.47;5093833;28;20028;-65
2023/01/26 01:35:59;;;;;;;24.25;21.70;;;;;;;-1.76;90.32;96013.53;5084363;28;20085;-65
2023/01/26 01:38:25;;;;;;;23.30;20.90;;;;;;;-1.63;89.58;96002.75;5088513;28;20486;-65
2023/01/26 01:40:52;;;;;;;23.63;21.33;;;;;;;-1.63;87.82;96008.72;5083177;28;20040;-65
2023/01/26 01:43:17;;;;;;;25.13;22.25;;;;;;;-1.70;88.02;96003.84;5081175;28;20019;-65
2023/01/26 01:45:45;;;;;;;22.77;20.40;;;;;;;-1.62;88.74;96002.66;5078334;28;20017;-65
2023/01/26 01:48:17;;;;;;;23.38;20.98;;;;;;;-1.72;88.42;95998.78;5055306;28;20013;-62
2023/01/26 01:50:43;;;;;;;23.08;20.70;;;;;;;-1.78;89.16;95992.09;5073411;28;20028;-65
2023/01/26 01:53:16;;;;;;;23.00;20.67;;;;;;;-1.77;88.64;95988.59;5080070;28;20020;-65
2023/01/26 01:55:41;;;;;;;23.60;21.08;;;;;;;-1.79;88.02;95985.25;5079409;28;20035;-65
2023/01/26 01:58:07;;;;;;;24.13;21.77;;;;;;;-1.80;88.32;95980.13;5082984;28;20017;-64
2023/01/26 02:00:33;;;;;;;22.65;20.30;;;;;;;-1.79;87.52;95979.22;5080551;28;20398;-65
2023/01/26 02:03:17;;;;;;;23.58;21.20;;;;;;;-1.81;88.14;95975.88;5075997;28;20017;-66
2023/01/26 02:05:52;;;;;;;25.63;22.92;;;;;;;-1.86;88.27;95968.31;5077225;28;20020;-64
2023/01/26 02:08:18;;;;;;;25.33;21.03;;;;;;;-1.84;88.60;95976.00;5085129;28;20036;-69
2023/01/26 02:10:48;;;;;;;27.75;22.92;;;;;;;-1.86;88.61;95965.75;5076279;28;20536;-65
2023/01/26 02:13:15;;;;;;;25.50;22.80;;;;;;;-1.87;89.35;95967.47;5065733;28;20127;-64
2023/01/26 02:15:41;;;;;;;26.95;22.95;;;;;;;-1.83;88.62;95969.94;5083622;28;20408;-64
2023/01/26 02:18:09;;;;;;;24.65;22.00;;;;;;;-1.82;89.08;95964.72;5073791;28;20387;-65
2023/01/26 02:20:35;;;;;;;27.55;22.25;;;;;;;-1.80;89.22;95962.91;5077530;28;20023;-65
2023/01/26 02:23:09;;;;;;;24.27;21.70;;;;;;;-1.77;89.66;95967.97;5080401;28;20444;-65
2023/01/26 02:25:52;;;;;;;23.27;20.92;;;;;;;-1.77;89.11;95956.78;5085099;28;20031;-69
2023/01/26 02:28:20;;;;;;;22.42;20.27;;;;;;;-1.77;89.11;95954.19;5085374;28;20020;-68
2023/01/26 02:30:46;;;;;;;22.08;19.83;;;;;;;-1.74;88.94;95954.94;5081645;28;20016;-65
2023/01/26 02:33:20;;;;;;;24.00;21.58;;;;;;;-1.77;89.78;95949.03;5093636;28;20030;-64
2023/01/26 02:35:45;;;;;;;22.95;20.55;;;;;;;-1.75;89.71;95955.00;5080932;28;20016;-65
2023/01/26 02:38:11;;;;;;;21.83;19.65;;;;;;;-1.74;88.72;95947.19;5081219;28;20047;-65
2023/01/26 02:40:43;;;;;;;25.20;22.48;;;;;;;-1.77;88.33;95942.16;5071511;28;20029;-65
2023/01/26 02:43:09;;;;;;;23.10;20.67;;;;;;;-1.78;88.56;95945.63;5074854;28;20028;-64
2023/01/26 02:45:37;;;;;;;23.00;20.70;;;;;;;-1.68;88.23;95945.25;5078931;28;20417;-68
2023/01/26 02:48:05;;;;;;;21.92;19.58;;;;;;;-1.72;87.50;95944.56;5073753;28;20107;-63
2023/01/26 02:50:31;;;;;;;22.63;20.30;;;;;;;-1.70;87.04;95937.59;5075310;28;20028;-64
2023/01/26 02:52:56;;;;;;;23.63;21.23;;;;;;;-1.76;87.57;95936.06;5085446;28;20474;-64
2023/01/26 02:55:23;;;;;;;23.25;20.88;;;;;;;-1.60;86.80;95938.88;5080349;28;20036;-64
2023/01/26 02:57:50;;;;;;;23.00;20.67;;;;;;;-1.60;85.68;95940.63;5074797;28;20150;-65
2023/01/26 03:00:24;;;;;;;22.60;20.27;;;;;;;-1.61;85.65;95929.47;5071567;28;20408;-65
2023/01/26 03:02:52;;;;;;;22.33;20.08;;;;;;;-1.68;85.81;95927.19;5082064;28;20020;-64
2023/01/26 03:05:18;;;;;;;22.52;20.23;;;;;;;-1.74;86.23;95933.44;5079494;28;20043;-64
2023/01/26 03:07:43;;;;;;;22.33;20.00;;;;;;;-1.66;86.54;95936.56;5087559;28;20081;-61
2023/01/26 03:10:10;;;;;;;22.60;20.20;;;;;;;-1.75;86.24;95930.00;5079676;28;20044;-68
2023/01/26 03:12:35;;;;;;;21.60;19.50;;;;;;;-1.68;86.08;95934.91;5081175;28;20012;-68
2023/01/26 03:17:45;;;;;;;21.80;19.60;;;;;;;-1.73;86.53;95937.72;5081513;28;20042;-68
2023/01/26 03:28:23;;;;;;;22.40;20.00;;;;;;;-1.78;85.23;95929.28;5087542;28;20080;-61
2023/01/26 03:30:49;;;;;;;22.67;20.40;;;;;;;-1.85;86.23;95925.28;5080973;28;20028;-61
2023/01/26 03:33:15;;;;;;;21.00;18.90;;;;;;;-1.86;86.56;95919.28;5094688;28;20015;-61
2023/01/26 03:35:41;;;;;;;20.98;18.73;;;;;;;-1.80;86.12;95921.63;5083661;28;20052;-61
2023/01/26 03:38:06;;;;;;;20.80;18.70;;;;;;;-1.73;85.51;95917.06;5088326;28;20074;-61
2023/01/26 03:57:01;;;;;;;20.77;18.65;;;;;;;-1.80;86.43;95911.28;5081987;28;20597;-65
2023/01/26 03:59:38;;;;;;;21.50;19.35;;;;;;;-1.73;86.13;95920.47;5081936;28;20111;-65
2023/01/26 04:10:23;;;;;;;22.92;20.58;;;;;;;-1.81;87.85;95898.44;5080931;28;20547;-69
2023/01/26 04:23:48;;;;;;;21.40;19.23;;;;;;;-1.88;88.01;95888.34;5080367;28;20558;-64
2023/01/26 04:26:13;;;;;;;22.27;19.88;;;;;;;-1.92;87.62;95888.53;5084882;28;20016;-65
2023/01/26 04:28:39;;;;;;;22.92;20.58;;;;;;;-1.96;88.38;95876.66;5084738;28;20504;-65
2023/01/26 04:31:05;;;;;;;19.88;17.88;;;;;;;-2.05;88.37;95876.13;5079343;28;20099;-65
2023/01/26 04:33:30;;;;;;;23.67;20.05;;;;;;;-1.92;87.92;95870.47;5085057;28;20393;-65
2023/01/26 04:35:55;;;;;;;21.35;19.05;;;;;;;-1.90;86.79;95879.84;5072511;28;20032;-65
2023/01/26 04:38:21;;;;;;;21.92;19.63;;;;;;;-1.95;87.51;95870.59;5085321;28;20092;-65
2023/01/26 04:40:53;;;;;;;20.65;18.45;;;;;;;-1.82;87.33;95864.06;5079435;28;20032;-65
2023/01/26 04:43:19;;;;;;;20.05;17.92;;;;;;;-1.93;87.07;95871.38;5075374;28;20026;-68
2023/01/26 04:45:44;;;;;;;21.27;18.95;;;;;;;-1.87;86.81;95864.22;5078091;28;20025;-63
2023/01/26 04:48:09;;;;;;;20.23;18.05;;;;;;;-1.93;86.90;95859.31;5085147;28;20104;-63
2023/01/26 04:50:35;;;;;;;21.45;19.35;;;;;;;-2.03;87.40;95853.69;5080261;28;20118;-63
2023/01/26 04:53:00;;;;;;;21.20;19.10;;;;;;;-2.05;87.84;95854.63;5080640;28;20046;-63
2023/01/26 04:55:25;;;;;;;23.60;19.70;;;;;;;-2.06;87.44;95863.28;5080867;28;20440;-62
2023/01/26 04:57:50;;;;;;;21.80;19.60;;;;;;;-2.10;87.51;95857.41;5075679;28;20440;-63
2023/01/26 05:00:16;;;;;;;19.70;17.55;;;;;;;-2.07;87.34;95856.44;5076010;28;20024;-63
2023/01/26 05:02:41;;;;;;;20.15;18.15;;;;;;;-2.14;87.66;95855.84;5082245;28;20104;-63
2023/01/26 05:05:07;;;;;;;20.65;18.52;;;;;;;-2.14;88.52;95848.09;5080720;28;20082;-63
2023/01/26 05:07:33;;;;;;;20.80;18.50;;;;;;;-2.05;87.74;95849.47;5078563;28;20426;-63
2023/01/26 05:09:58;;;;;;;19.63;17.63;;;;;;;-2.00;86.70;95852.69;5079549;28;20090;-62
2023/01/26 05:12:32;;;;;;;21.45;18.92;;;;;;;-2.04;86.70;95852.00;5080717;28;20024;-62
2023/01/26 05:14:58;;;;;;;21.65;19.42;;;;;;;-2.00;86.77;95851.88;5075339;28;20024;-63
2023/01/26 05:17:23;;;;;;;20.70;17.67;;;;;;;-1.98;86.75;95844.91;5078947;28;20054;-64
2023/01/26 05:19:48;;;;;;;21.80;19.33;;;;;;;-2.07;87.09;95846.97;5076494;28;20115;-63
2023/01/26 05:22:13;;;;;;;20.70;18.50;;;;;;;-2.13;87.57;95838.63;5078036;28;20486;-61
2023/01/26 05:24:39;;;;;;;20.27;18.17;;;;;;;-2.14;88.48;95840.34;5076658;28;20032;-69
2023/01/26 05:27:22;;;;;;;20.83;18.63;;;;;;;-2.17;88.53;95836.19;5085359;28;20035;-69
2023/01/26 05:29:51;;;;;;;19.77;17.63;;;;;;;-2.12;88.39;95835.97;5077827;28;20021;-69
2023/01/26 05:32:16;;;;;;;22.35;20.00;;;;;;;-2.04;87.84;95835.66;5080853;28;20107;-70
2023/01/26 05:34:42;;;;;;;21.05;18.77;;;;;;;-2.08;88.21;95834.13;5079569;28;20471;-69
2023/01/26 05:37:07;;;;;;;20.20;18.27;;;;;;;-2.10;87.69;95838.50;5085583;28;20028;-68
2023/01/26 05:39:33;;;;;;;20.27;18.23;;;;;;;-2.16;88.28;95837.00;5085900;28;20031;-63
2023/01/26 05:41:58;;;;;;;20.92;18.50;;;;;;;-2.00;88.51;95828.66;5086521;28;20085;-61
2023/01/26 05:44:25;;;;;;;20.90;17.95;;;;;;;-1.86;87.11;95828.94;5090172;28;20044;-63
2023/01/26 05:46:51;;;;;;;20.77;18.02;;;;;;;-1.92;87.13;95835.19;5082952;28;20062;-62
2023/01/26 05:49:16;;;;;;;20.48;18.40;;;;;;;-1.97;86.55;95834.53;5085900;28;20030;-62
2023/01/26 05:51:42;;;;;;;19.40;17.30;;;;;;;-2.07;87.73;95836.66;5086786;28;20102;-62
2023/01/26 05:54:08;;;;;;;19.33;17.15;;;;;;;-2.16;87.48;95830.13;5083975;28;20490;-63
2023/01/26 05:56:33;;;;;;;22.02;19.63;;;;;;;-2.19;88.07;95832.81;5081124;28;20502;-63
2023/01/26 05:58:58;;;;;;;20.33;17.95;;;;;;;-1.99;87.49;95840.66;5085651;28;20047;-68
2023/01/26 06:01:24;;;;;;;20.73;18.63;;;;;;;-2.12;88.39;95835.16;5082938;28;20029;-63
2023/01/26 06:03:49;;;;;;;20.60;18.40;;;;;;;-2.19;88.59;95837.97;5080219;28;20022;-70
2023/01/26 06:06:14;;;;;;;23.15;19.70;;;;;;;-2.19;89.27;95831.97;5077138;28;20089;-70
2023/01/26 06:08:40;;;;;;;22.13;19.92;;;;;;;-2.21;89.17;95834.63;5085586;28;20093;-70
2023/01/26 06:11:05;;;;;;;21.60;18.60;;;;;;;-2.26;88.63;95844.25;5080875;28;20019;-68
2023/01/26 06:13:30;;;;;;;22.65;19.17;;;;;;;-2.13;89.13;95841.22;5084005;28;20059;-69
2023/01/26 06:15:59;;;;;;;20.98;18.77;;;;;;;-2.22;89.65;95832.91;5084523;28;20024;-69
2023/01/26 06:18:24;;;;;;;19.33;17.08;;;;;;;-2.27;88.65;95834.84;5085956;28;20036;-63
2023/01/26 06:20:50;;;;;;;20.05;17.95;;;;;;;-2.27;89.03;95829.69;5087298;28;20032;-69
2023/01/26 06:23:15;;;;;;;20.60;18.23;;;;;;;-2.27;89.65;95831.44;5088373;28;20047;-61
2023/01/26 06:25:41;;;;;;;22.98;19.48;;;;;;;-2.18;89.16;95833.66;5089694;28;20054;-61
2023/01/26 06:28:06;;;;;;;20.35;17.65;;;;;;;-2.19;87.99;95832.81;5089622;28;20027;-61
2023/01/26 06:30:33;;;;;;;19.58;17.45;;;;;;;-2.14;87.85;95832.63;5090826;28;20134;-61
2023/01/26 06:32:58;;;;;;;21.20;19.00;;;;;;;-2.13;87.70;95823.16;5093333;28;20082;-61
2023/01/26 06:35:25;;;;;;;21.20;18.92;;;;;;;-2.16;87.46;95826.69;5090568;28;20020;-61
2023/01/26 06:37:51;;;;;;;30.95;26.98;;;;;;;-2.15;87.35;95818.03;5089773;28;20398;-68
2023/01/26 06:40:17;;;;;;;24.35;21.65;;;;;;;-2.21;87.11;95820.88;5091140;28;20077;-65
2023/01/26 06:42:49;;;;;;;21.58;19.33;;;;;;;-2.24;87.49;95802.94;5091135;28;20038;-68
2023/01/26 06:45:19;;;;;;;21.20;19.00;;;;;;;-2.25;87.58;95809.00;5090869;28;20486;-69
2023/01/26 06:47:49;;;;;;;21.73;19.52;;;;;;;-2.24;87.37;95814.09;5090891;28;20035;-69
2023/01/26 06:50:18;;;;;;;20.63;18.42;;;;;;;-2.26;86.67;95809.91;5079037;28;20102;-69
2023/01/26 06:52:46;;;;;;;24.55;22.00;;;;;;;-2.16;86.54;95803.47;5090227;28;20366;-70
2023/01/26 06:55:21;;;;;;;37.78;31.23;;;;;;;-2.21;85.48;95806.25;5089626;28;20038;-70
2023/01/26 06:57:46;;;;;;;31.63;27.48;;;;;;;-2.23;85.90;95804.63;5087260;28;20027;-67
2023/01/26 07:00:12;;;;;;;50.47;43.03;;;;;;;-2.23;86.35;95805.44;5090758;28;20024;-60
2023/01/26 07:02:38;;;;;;;41.33;31.88;;;;;;;-2.20;86.62;95807.06;5089847;28;20056;-61
2023/01/26 07:05:04;;;;;;;25.98;23.20;;;;;;;-2.19;87.59;95807.03;5089904;28;20055;-62
2023/01/26 07:07:29;;;;;;;29.80;26.80;;;;;;;-2.14;87.63;95809.41;5089092;28;20035;-62
2023/01/26 07:09:55;;;;;;;32.17;28.88;;;;;;;-2.11;87.88;95808.44;5090729;28;20024;-64
2023/01/26 07:12:20;;;;;;;28.25;25.20;;;;;;;-2.10;87.67;95803.25;5089999;28;20032;-62
2023/01/26 07:14:45;;;;;;;27.42;24.52;;;;;;;-2.11;85.63;95798.94;5090424;28;20039;-62
2023/01/26 07:17:11;;;;;;;27.67;24.55;;;;;;;-2.10;85.69;95810.13;5090241;28;20394;-63
2023/01/26 07:19:37;;;;;;;22.40;20.00;;;;;;;-2.08;85.54;95809.19;5089878;28;20063;-69
2023/01/26 07:22:03;;;;;;;30.27;22.27;;;;;;;-2.12;85.56;95806.78;5070555;28;20039;-63
2023/01/26 07:24:28;;;;;;;22.02;19.70;;;;;;;-2.18;84.32;95810.44;5090376;28;20046;-63
2023/01/26 07:26:55;;;;;;;24.55;20.77;;;;;;;-2.19;84.96;95806.16;5089872;28;20501;-63
2023/01/26 07:29:20;;;;;;;23.27;20.80;;;;;;;-2.16;84.84;95808.63;5090189;28;20028;-64
2023/01/26 07:31:45;;;;;;;25.15;22.55;;;;;;;-2.12;85.19;95810.16;5089656;28;20802;-64
2023/01/26 07:34:11;;;;;;;23.58;21.17;;;;;;;-2.14;85.42;95804.25;5096520;28;20569;-63
2023/01/26 07:36:37;;;;;;;24.27;20.85;;;;;;;-2.14;85.19;95803.41;5090076;28;20545;-65
2023/01/26 07:39:03;;;;;;;27.95;23.75;;;;;;;-2.14;85.20;95799.06;5071974;28;20055;-63
2023/01/26 07:41:28;;;;;;;42.50;33.50;;;;;;;-2.14;85.54;95793.09;5089605;28;20115;-65
2023/01/26 07:43:53;;;;;;;30.80;25.30;;;;;;;-2.12;85.50;95796.44;5090158;28;20028;-65
2023/01/26 07:46:20;;;;;;;26.42;21.45;;;;;;;-2.14;85.23;95793.09;5089836;28;20047;-65
2023/01/26 07:48:45;;;;;;;23.30;20.90;;;;;;;-2.11;85.26;95793.78;5089971;28;20517;-65
2023/01/26 07:51:10;;;;;;;23.27;20.90;;;;;;;-1.98;84.79;95781.25;5089859;28;20016;-65
2023/01/26 07:53:41;;;;;;;23.25;20.25;;;;;;;-1.83;83.55;95786.66;5089888;28;20023;-65
2023/01/26 07:56:14;;;;;;;24.10;20.85;;;;;;;-1.91;84.03;95779.25;5089627;28;20016;-63
2023/01/26 07:58:40;;;;;;;26.30;23.27;;;;;;;-1.87;84.19;95770.50;5089961;28;20012;-60
2023/01/26 08:01:11;;;;;;;24.13;21.00;;;;;;;-1.84;83.70;95779.81;5089305;28;20107;-61
2023/01/26 08:03:36;;;;;;;24.60;21.45;;;;;;;-1.77;83.61;95781.25;5089579;28;20047;-61
2023/01/26 08:06:02;;;;;;;33.33;23.17;;;;;;;-1.69;83.54;95784.34;5089699;28;20054;-61
2023/01/26 08:08:27;;;;;;;23.95;19.75;;;;;;;-1.69;82.44;95784.34;5090104;28;20020;-60
2023/01/26 08:10:59;;;;;;;21.00;18.77;;;;;;;-1.62;81.82;95778.03;5089294;28;20132;-61
2023/01/26 08:13:25;;;;;;;21.17;18.30;;;;;;;-1.69;81.89;95781.78;5089633;28;20382;-60
2023/01/26 08:15:50;;;;;;;19.38;17.40;;;;;;;-1.69;81.67;95778.34;5089477;28;20065;-70
2023/01/26 08:18:15;;;;;;;22.08;19.35;;;;;;;-1.71;81.56;95775.00;5089963;28;20035;-63
2023/01/26 08:20:47;;;;;;;20.00;17.55;;;;;;;-1.77;81.96;95787.25;5089286;28;20397;-62
2023/01/26 08:23:13;;;;;;;21.15;18.95;;;;;;;-1.76;82.46;95788.09;5089660;28;20024;-63
2023/01/26 08:25:38;;;;;;;21.40;18.40;;;;;;;-1.74;82.28;95781.97;5089043;28;20763;-63
2023/01/26 08:28:03;;;;;;;21.65;19.23;;;;;;;-1.65;83.17;95779.91;5089386;28;20485;-63
2023/01/26 08:30:29;;;;;;;19.73;17.52;;;;;;;-1.58;82.51;95781.31;5089644;28;20020;-63
2023/01/26 08:32:54;;;;;;;20.67;18.55;;;;;;;-1.72;82.36;95774.16;5095215;28;20023;-63
2023/01/26 08:35:19;;;;;;;25.25;22.10;;;;;;;-1.71;82.53;95772.41;5089580;28;20061;-65
2023/01/26 08:37:45;;;;;;;25.33;21.23;;;;;;;-1.71;81.80;95780.16;5089333;28;20158;-63
2023/01/26 08:40:10;;;;;;;24.15;21.55;;;;;;;-1.63;80.71;95776.34;5089305;28;20060;-62
2023/01/26 08:42:36;;;;;;;21.13;18.77;;;;;;;-1.49;80.85;95775.75;5070970;28;20028;-63
2023/01/26 08:45:01;;;;;;;22.90;19.00;;;;;;;-1.62;80.66;95772.84;5089414;28;20099;-62
2023/01/26 08:47:27;;;;;;;26.63;23.83;;;;;;;-1.70;81.52;95779.25;5089408;28;20028;-62
2023/01/26 08:49:52;;;;;;;27.98;22.92;;;;;;;-1.67;82.27;95781.69;5089027;28;20056;-63
2023/01/26 08:52:17;;;;;;;27.50;21.02;;;;;;;-1.59;82.43;95774.47;5089302;28;20089;-63
2023/01/26 08:54:42;;;;;;;35.75;25.63;;;;;;;-1.65;82.75;95774.75;5088979;28;20050;-61
2023/01/26 08:57:08;;;;;;;29.67;24.88;;;;;;;-1.65;82.79;95775.56;5089332;28;20077;-68
2023/01/26 08:59:33;;;;;;;28.60;24.70;;;;;;;-1.64;82.67;95776.44;5089209;28;20027;-68
2023/01/26 09:01:58;;;;;;;23.23;20.40;;;;;;;-1.55;82.74;95783.75;5091705;28;20027;-68
2023/01/26 09:04:26;;;;;;;25.23;22.17;;;;;;;-1.55;82.57;95786.34;5092985;28;20012;-68
2023/01/26 09:06:51;;;;;;;25.55;22.65;;;;;;;-1.58;82.83;95781.31;5093352;28;20035;-68
2023/01/26 09:09:16;;;;;;;24.00;21.40;;;;;;;-1.53;83.20;95775.97;5092808;28;20028;-68
2023/01/26 09:11:42;;;;;;;29.90;21.80;;;;;;;-1.47;83.05;95788.59;5092893;28;20111;-68
2023/01/26 09:14:07;;;;;;;25.30;22.20;;;;;;;-1.53;83.17;95792.28;5092587;28;20067;-63
2023/01/26 09:16:33;;;;;;;23.38;20.50;;;;;;;-1.53;82.54;95783.72;5075258;28;20039;-63
2023/01/26 09:18:58;;;;;;;22.98;20.23;;;;;;;-1.55;82.50;95783.75;5055572;28;20028;-64
2023/01/26 09:21:24;;;;;;;22.50;20.10;;;;;;;-1.42;82.53;95778.09;5084838;28;20024;-64
2023/01/26 09:23:49;;;;;;;26.75;23.35;;;;;;;-1.44;82.62;95780.72;5092238;28;20470;-64
2023/01/26 09:26:14;;;;;;;25.45;21.58;;;;;;;-1.46;82.45;95780.78;5092666;28;20436;-64
2023/01/26 09:28:40;;;;;;;26.73;22.52;;;;;;;-1.48;82.22;95781.75;5074048;28;20456;-65
2023/01/26 09:31:09;;;;;;;24.77;21.90;;;;;;;-1.49;82.73;95780.91;5093156;28;20486;-64
2023/01/26 09:33:35;;;;;;;23.33;20.85;;;;;;;-1.52;81.86;95780.22;5098932;28;20051;-60
2023/01/26 09:36:06;;;;;;;24.55;19.90;;;;;;;-1.57;82.37;95785.59;5092493;28;20609;-64
2023/01/26 09:38:31;;;;;;;22.88;20.58;;;;;;;-1.58;82.57;95792.47;5092316;28;20040;-64
2023/01/26 09:41:04;;;;;;;23.52;21.05;;;;;;;-1.55;82.72;95781.19;5092183;28;20028;-64
2023/01/26 09:43:43;;;;;;;22.98;19.33;;;;;;;-1.57;82.51;95788.16;5092319;28;20024;-65
2023/01/26 09:46:32;;;;;;;23.20;20.33;;;;;;;-1.56;82.44;95792.41;5092224;28;20409;-64
2023/01/26 09:49:23;;;;;;;24.92;21.63;;;;;;;-1.43;82.16;95795.31;5092366;28;20485;-64
2023/01/26 09:52:18;;;;;;;26.30;21.27;;;;;;;-1.42;82.48;95791.81;5092002;28;20058;-63
2023/01/26 09:54:50;;;;;;;44.80;36.25;;;;;;;-1.37;83.64;95789.06;5088656;28;20027;-67
2023/01/26 09:57:20;;;;;;;27.73;24.35;;;;;;;-1.12;83.22;95798.31;5092004;28;20447;-64
2023/01/26 10:00:04;;;;;;;27.67;24.55;;;;;;;-1.23;83.40;95791.03;5091758;28;20024;-65
2023/01/26 10:03:09;;;;;;;30.38;24.73;;;;;;;-1.17;83.97;95791.59;5091766;28;20453;-65
2023/01/26 10:05:54;;;;;;;28.52;25.25;;;;;;;-1.22;84.46;95793.53;5091934;28;20028;-64
2023/01/26 10:08:23;;;;;;;27.90;23.77;;;;;;;-1.14;84.82;95793.19;5082338;28;20027;-64
2023/01/26 10:10:56;;;;;;;28.38;23.55;;;;;;;-1.12;84.62;95790.56;5091845;28;20099;-60
2023/01/26 10:13:22;;;;;;;26.48;22.33;;;;;;;-1.06;82.82;95798.03;5091803;28;20048;-70
2023/01/26 10:15:57;;;;;;;24.48;21.10;;;;;;;-1.09;82.65;95787.84;5091661;28;20062;-64
2023/01/26 10:18:36;;;;;;;27.63;23.17;;;;;;;-1.04;82.45;95793.63;5073615;28;20020;-64
2023/01/26 10:21:04;;;;;;;23.73;20.85;;;;;;;-0.92;80.78;95785.34;5080177;28;20074;-64
2023/01/26 10:23:32;;;;;;;27.65;24.55;;;;;;;-0.96;82.20;95788.13;5091302;28;20103;-65
2023/01/26 10:26:12;;;;;;;31.80;26.83;;;;;;;-1.04;84.18;95791.91;5091656;28;20024;-64
2023/01/26 10:28:40;;;;;;;30.80;24.80;;;;;;;-1.02;84.96;95792.66;5091835;28;20020;-64
2023/01/26 10:31:13;;;;;;;31.13;26.38;;;;;;;-0.94;84.70;95786.31;5091550;28;20035;-63
2023/01/26 10:33:52;;;;;;;30.05;26.08;;;;;;;-1.00;84.75;95784.81;5090745;28;20525;-61
2023/01/26 10:36:19;;;;;;;28.88;25.13;;;;;;;-0.90;84.80;95783.53;5091210;28;20047;-64
2023/01/26 10:38:45;;;;;;;30.15;26.17;;;;;;;-0.93;85.24;95783.66;5072869;28;20424;-64
2023/01/26 10:41:17;;;;;;;34.90;26.65;;;;;;;-0.88;84.46;95770.53;5072715;28;20394;-64
2023/01/26 10:43:53;;;;;;;29.58;24.83;;;;;;;-0.96;85.70;95768.28;5091535;28;20024;-64
2023/01/26 10:46:38;;;;;;;32.42;25.30;;;;;;;-0.90;84.77;95768.00;5091076;28;20024;-64
2023/01/26 10:49:07;;;;;;;35.70;28.50;;;;;;;-0.88;84.33;95770.53;5091120;28;20020;-64
2023/01/26 10:51:34;;;;;;;35.67;31.42;;;;;;;-0.92;84.31;95762.06;5090965;28;20055;-62
2023/01/26 10:54:22;;;;;;;61.80;48.67;;;;;;;-1.03;86.59;95766.88;5091080;28;20482;-64
2023/01/26 10:56:52;;;;;;;37.17;31.45;;;;;;;-1.04;86.21;95760.03;5090842;28;20394;-65
2023/01/26 10:59:30;;;;;;;31.55;26.08;;;;;;;-0.83;84.51;95765.13;5090878;28;20024;-65
2023/01/26 11:01:59;;;;;;;31.35;26.83;;;;;;;-0.85;84.00;95759.19;5090874;28;20036;-64
2023/01/26 11:04:25;;;;;;;31.58;26.17;;;;;;;-0.91;82.58;95755.13;5090357;28;20394;-65
2023/01/26 11:06:51;;;;;;;39.55;29.02;;;;;;;-0.88;83.32;95757.63;5090897;28;20028;-65
2023/01/26 11:09:18;;;;;;;41.28;35.75;;;;;;;-0.93;83.28;95751.78;5089935;28;20027;-60
2023/01/26 11:12:04;;;;;;;36.83;31.38;;;;;;;-0.90;83.73;95749.91;5091013;28;20024;-61
2023/01/26 11:14:31;;;;;;;26.08;23.15;;;;;;;-0.85;82.25;95756.63;5090963;28;20012;-60
2023/01/26 11:17:13;;;;;;;27.80;24.77;;;;;;;-0.88;82.33;95748.09;5090246;28;20028;-61
2023/01/26 11:20:13;;;;;;;30.58;24.58;;;;;;;-0.92;83.31;95749.16;5090682;28;20027;-60
2023/01/26 11:22:52;;;;;;;31.77;27.67;;;;;;;-0.92;83.91;95748.28;5090309;28;20439;-60
2023/01/26 11:25:53;;;;;;;31.38;26.08;;;;;;;-0.92;84.17;95751.72;5089503;28;20035;-61
2023/01/26 11:28:48;;;;;;;34.78;28.92;;;;;;;-0.82;84.10;95748.72;5069819;28;20035;-60
2023/01/26 11:31:35;;;;;;;30.73;24.85;;;;;;;-0.88;83.67;95747.28;5089742;28;20019;-70
2023/01/26 11:34:27;;;;;;;28.13;23.00;;;;;;;-0.82;82.19;95743.53;5096309;28;20061;-62
2023/01/26 11:37:20;;;;;;;28.73;24.02;;;;;;;-0.84;82.38;95745.38;5089490;28;20122;-62
2023/01/26 11:40:18;;;;;;;28.63;25.08;;;;;;;-0.94;83.54;95740.63;5089737;28;20048;-62
2023/01/26 11:43:07;;;;;;;29.88;26.67;;;;;;;-0.96;84.62;95742.44;5048570;28;20032;-62
2023/01/26 11:46:00;;;;;;;35.03;30.92;;;;;;;-0.96;83.97;95739.88;5095948;28;20543;-62
2023/01/26 11:48:28;;;;;;;31.13;26.98;;;;;;;-0.94;83.63;95739.78;5089487;28;20043;-64
2023/01/26 11:51:10;;;;;;;40.92;36.63;;;;;;;-0.98;83.01;95739.09;5090095;28;20169;-63
2023/01/26 11:53:54;;;;;;;34.47;29.58;;;;;;;-0.99;83.20;95737.44;5089745;28;20478;-67
2023/01/26 11:56:25;;;;;;;36.28;29.15;;;;;;;-0.96;83.45;95733.84;5105187;28;20031;-67
2023/01/26 11:59:06;;;;;;;31.40;28.10;;;;;;;-0.92;84.15;95730.19;5089760;28;20077;-67
2023/01/26 12:01:46;;;;;;;31.83;27.90;;;;;;;-0.93;84.18;95726.78;5077475;28;20045;-66
2023/01/26 12:04:21;;;;;;;29.58;26.23;;;;;;;-0.92;84.56;95722.44;5071045;28;20069;-67
2023/01/26 12:07:05;;;;;;;29.92;26.58;;;;;;;-0.97;84.48;95727.00;5090000;28;20089;-67
2023/01/26 12:09:45;;;;;;;30.30;26.50;;;;;;;-0.96;84.32;95724.34;5089828;28;20024;-62
2023/01/26 12:12:24;;;;;;;29.33;26.25;;;;;;;-0.99;85.24;95721.06;5089247;28;20377;-60
2023/01/26 12:15:05;;;;;;;30.02;26.52;;;;;;;-1.02;84.29;95727.19;5089666;28;20099;-60